Tiempo atmosférico en la estación meteorológica de Sant Jaume d'Enveja, Tarragona (1 m.)



Fecha
DESCASC
Temp. máxima en grados centígrados (hora)
DESCASC
Temp. mínima en grados centígrados (hora)
DESCASC
Temp. media en grados centígrados
DESCASC
Racha de viento máxima en m/sg (hora)
DESCASC
Velocidad máxima media en intervalos de 10 minutos(hora)
DESCASC
Precipitaciones diarias en mm
DESCASC
Precipitaciones de 00:00 a 06:00 en mm
DESCASC
Precipitaciones de 06:00 a 12:00 en mm
DESCASC
Precipitaciones de 12:00 a 18:00 en mm
DESCASC
Precipitaciones de 18:00 a 24:00 en mm
DESCASC
16-06-2019 23.3 (13:50) 18.1 (06:10) 20.7 7.78 (15:30) 6.11 (15:40) 0 0 0 0 0
15-06-2019 27.5 (14:10) 17.9 (05:50) 22.7 9.44 (06:30) 5.56 (17:30) 0 0 0 0 0
14-06-2019 23.6 (16:00) 17.3 (07:20) 20.4 8.89 (11:10) 6.39 (12:30) 0 0 0 0 0
13-06-2019 21 (16:30) 15.9 (00:00) 18.4 8.33 (11:30) 2.22 (14:50) 0 0 0 0 0
12-06-2019 20.7 (15:50) 12.4 (00:00) 16.6 7.22 (14:50) 5 (14:30) 0 0 0 0 0
11-06-2019 20.6 (00:20) 14.3 (00:00) 17.5 13.33 (10:40) 8.06 (11:20) 0.2 0 0 0.1 0.1
10-06-2019 27.3 (15:10) 16.7 (00:00) 22 9.44 (12:20) 6.67 (15:50) 0.2 0 0 0 0.2
09-06-2019 23 (19:10) 17.4 (00:00) 20.2 5.83 (18:30) 4.44 (18:30) 0 0 0 0 0
08-06-2019 21.8 (16:20) 17.2 (00:00) 19.5 7.22 (03:00) 4.44 (14:50) 0 0 0 0 0
07-06-2019 24.6 (13:30) 17.9 (00:00) 21.3 6.67 (15:40) 4.72 (14:50) 0 0 0 0 0
06-06-2019 22.6 (16:50) 14.8 (00:00) 18.7 8.06 (00:10) 5.28 (17:20) 0 0 0 0 0
05-06-2019 23.9 (19:20) 18.5 (00:00) 21.2 13.33 (14:40) 6.11 (17:40) 0.3 0 0 0.3 0
04-06-2019 22.6 (14:50) 18.1 (00:00) 20.4 -- (--) -- (--) 0 0 0 0 0
03-06-2019 23 (15:10) 17 (00:00) 20 8.61 (16:30) 7.22 (16:40) 0 0 0 0 0
02-06-2019 23.1 (16:20) 16.9 (00:00) 20 8.61 (18:10) 6.39 (18:00) 0 0 0 0 0
01-06-2019 22.8 (15:20) 16.5 (00:00) 19.6 8.06 (18:00) 6.11 (17:20) 0 0 0 0 0
31-05-2019 22.4 (17:10) 16 (00:00) 19.2 7.5 (17:20) 6.11 (18:30) 0 0 0 0 0
30-05-2019 22.2 (16:00) 15.3 (00:00) 18.8 8.33 (19:30) 6.11 (19:30) 0 0 0 0 0
29-05-2019 25.3 (15:20) 14.3 (00:00) 19.8 14.44 (03:40) 8.89 (19:40) 0 0 0 0 0
28-05-2019 24.8 (16:00) 15.3 (00:00) 20 15 (04:20) 8.89 (05:50) 0 0 0 0 0
27-05-2019 25 (14:40) 16 (00:00) 20.5 10.28 (18:30) 8.61 (18:30) 0 0 0 0 0
26-05-2019 25.7 (16:40) 14.9 (00:00) 20.3 11.11 (10:00) 6.94 (18:20) 0 0 0 0 0
25-05-2019 24.5 (15:30) 14.4 (00:00) 19.4 10 (12:20) 6.11 (21:00) 6.5 5.4 0.2 0 0.9
24-05-2019 18.7 (00:10) 15.4 (00:00) 17.1 6.39 (06:00) 4.72 (18:50) 9.5 2.2 1.4 2.3 3.6
23-05-2019 21.8 (14:40) 16.2 (00:00) 19 6.67 (16:40) 5.28 (16:40) 0 0 0 0 0
22-05-2019 22 (16:00) 15.7 (00:00) 18.8 8.33 (21:30) 6.94 (21:30) 0 0 0 0 0

Gráficas

Temp. máximas Temp. mínimas Temp. medias Precipitaciones Rachas de viento máximas Velocidades máximas media en intervalos de 10 minutos

Datos horarios

Fecha y hora oficial Temperatura (ºC) Velocidad del viento (km/h) Dirección del viento Racha (km/h) Dirección de racha Precipitación (mm) Presión (hPa) Tendencia (hPa) Humedad (%)
2019-06-20 23:00:00 21.2 3 Nordeste 14 Nordeste 0 -- -- 86
2019-06-20 22:00:00 21.6 5 Nordeste 13 Nordeste 0 -- -- 85
2019-06-20 21:00:00 21.9 5 Nordeste 16 Nordeste 0 -- -- 82
2019-06-20 20:00:00 22.1 5 Nordeste 14 Nordeste 0 -- -- 81
2019-06-20 19:00:00 23.1 4 Nordeste 19 Nordeste 0 -- -- 78
2019-06-20 18:00:00 23.1 3 Este 18 Este 0 -- -- 78
2019-06-20 17:00:00 23.7 6 Nordeste 22 Nordeste 0 -- -- 72
2019-06-20 16:00:00 23.7 7 Nordeste 19 Nordeste 0 -- -- 70
2019-06-20 15:00:00 24 6 Este 17 Nordeste 0 -- -- 68
2019-06-20 14:00:00 23.7 5 Nordeste 17 Nordeste 0 -- -- 72
2019-06-20 13:00:00 24.1 5 Nordeste 17 Nordeste 0 -- -- 70
2019-06-20 12:00:00 23.9 7 Nordeste 21 Nordeste 0 -- -- 66
2019-06-20 11:00:00 23 5 Nordeste 20 Nordeste 0 -- -- 77
2019-06-20 10:00:00 22.3 8 Nordeste 20 Nordeste 0 -- -- 81
2019-06-20 09:00:00 21.5 7 Nordeste 18 Norte 0 -- -- 82
2019-06-20 08:00:00 21.3 4 Nordeste 13 Nordeste 0 -- -- 84
2019-06-20 07:00:00 20.5 0 Calma 10 Nordeste 0 -- -- 89
2019-06-20 06:00:00 20.8 4 Nordeste 12 Norte 0 -- -- 89
2019-06-20 05:00:00 21 2 Este 12 Nordeste 0 -- -- 93
2019-06-20 04:00:00 21 3 Nordeste 12 Norte 0 -- -- 93
2019-06-20 03:00:00 21.3 3 Nordeste 8 Nordeste 0 -- -- 93
2019-06-20 02:00:00 21.4 0 Calma 9 Nordeste 0 -- -- 92
2019-06-20 01:00:00 21.4 3 Nordeste 9 Norte 0 -- -- 92
2019-06-20 00:00:00 21.4 0 Calma 7 Sudeste 0 -- -- 91
2019-06-19 23:00:00 22 0 Calma 9 Sudeste 0 -- -- 89
2019-06-19 22:00:00 22 0 Calma 12 Sudeste 0 -- -- 89
2019-06-19 21:00:00 22.6 7 Sudeste 12 Sudeste 0 -- -- 87
2019-06-19 20:00:00 24 6 Sudeste 16 Sudeste 0 -- -- 82
2019-06-19 19:00:00 24.2 9 Sudeste 15 Sudeste 0 -- -- 78
2019-06-19 18:00:00 25.5 5 Sudeste 12 Sudeste 0 -- -- 69
2019-06-19 17:00:00 25 6 Sudeste 17 Sur 0 -- -- 72
2019-06-19 16:00:00 24.1 9 Sudeste 14 Sur 0 -- -- 76
2019-06-19 15:00:00 24.3 9 Sudeste 16 Sudeste 0 -- -- 78
2019-06-19 14:00:00 23.8 11 Sudeste 18 Sudeste 0 -- -- 78
2019-06-19 13:00:00 23.8 10 Sudeste 15 Sudeste 0 -- -- 76
2019-06-19 12:00:00 23.7 7 Sudeste 14 Sudeste 0 -- -- 75
2019-06-19 11:00:00 22.8 0 Calma 11 Norte 0 -- -- 78
2019-06-19 10:00:00 21.6 4 Nordeste 14 Norte 0 -- -- 86
2019-06-19 09:00:00 20.8 0 Calma 0 Calma 0 -- -- 87
2019-06-19 08:00:00 20.5 0 Calma 3 Sudeste 0 -- -- 94
2019-06-19 07:00:00 19.5 0 Calma 5 Sudeste 0 -- -- 94
2019-06-19 06:00:00 19.5 0 Calma 6 Norte 0 -- -- 94
2019-06-19 05:00:00 19.5 3 Nordeste 8 Nordeste 0 -- -- 94
2019-06-19 04:00:00 19.5 0 Calma 8 Sudeste 0 -- -- 94
2019-06-19 03:00:00 19.6 7 Sudeste 11 Sudeste 0 -- -- 94
2019-06-19 02:00:00 19.9 8 Sudeste 12 Sudeste 0 -- -- 94
2019-06-19 01:00:00 20.1 9 Sudeste 15 Sudeste 0 -- -- 93
2019-06-19 00:00:00 20.4 11 Sudeste 16 Sur 0 -- -- 93
2019-06-18 23:00:00 20.5 9 Sur 13 Sudeste 0 -- -- 92
2019-06-18 22:00:00 20.7 9 Sur 17 Sur 0 -- -- 92
2019-06-18 21:00:00 21.5 12 Sur 19 Sur 0 -- -- 87
2019-06-18 20:00:00 22.2 14 Sur 22 Sudeste 0 -- -- 82
2019-06-18 19:00:00 22.8 13 Sur 24 Sur 0 -- -- 82
2019-06-18 18:00:00 22.9 20 Sur 57 Sur 0 -- -- 82
2019-06-18 17:00:00 23.4 17 Sur 26 Sur 0 -- -- 75
2019-06-18 16:00:00 24 17 Sur 26 Sur 0 -- -- 76
2019-06-18 15:00:00 23.2 15 Sur 24 Sur 0 -- -- 84
2019-06-18 14:00:00 22.5 14 Sudeste 22 Sur 0 -- -- 83
2019-06-18 13:00:00 22.9 13 Sudeste 21 Sudeste 0 -- -- 79
2019-06-18 12:00:00 23.1 13 Sur 19 Sudeste 0 -- -- 78
2019-06-18 11:00:00 22.4 12 Sudeste 19 Sudeste 0 -- -- 83
2019-06-18 10:00:00 21.3 14 Sudeste 18 Sudeste 0 -- -- 85
2019-06-18 09:00:00 20.9 13 Sudeste 18 Sudeste 0 -- -- 88
2019-06-18 08:00:00 20.4 6 Sudeste 10 Sudeste 0 -- -- 91
2019-06-18 07:00:00 19.2 4 Sudeste 8 Sudeste 0 -- -- 93
2019-06-18 06:00:00 19.3 5 Sudeste 9 Sudeste 0 -- -- 93
2019-06-18 05:00:00 19.5 4 Sur 11 Sur 0 -- -- 94
2019-06-18 04:00:00 19.8 8 Sur 12 Sur 0 -- -- 94
2019-06-18 03:00:00 19.7 8 Sur 15 Sur 0 -- -- 91
2019-06-18 02:00:00 19.9 10 Sur 15 Sur 0 -- -- 91
2019-06-18 01:00:00 20.2 9 Sur 14 Sur 0 -- -- 93
2019-06-18 00:00:00 20.4 10 Sur 15 Sur 0 -- -- 93
2019-06-17 23:00:00 20.6 9 Sur 18 Sur 0 -- -- 93
2019-06-17 22:00:00 20.8 13 Sur 22 Sur 0 -- -- 91
2019-06-17 21:00:00 21.3 16 Sur 23 Sur 0 -- -- 87
2019-06-17 20:00:00 22.2 15 Sur 24 Sudoeste 0 -- -- 81
2019-06-17 19:00:00 22.8 19 Sur 25 Sur 0 -- -- 80
2019-06-17 18:00:00 23 17 Sur 26 Sur 0 -- -- 76
2019-06-17 17:00:00 23.1 19 Sur 27 Sur 0 -- -- 73
2019-06-17 16:00:00 23.3 20 Sur 26 Sur 0 -- -- 73
2019-06-17 15:00:00 23.2 17 Sur 25 Sur 0 -- -- 76
2019-06-17 14:00:00 22.6 15 Sur 22 Sur 0 -- -- 81
2019-06-17 13:00:00 23.1 14 Sur 20 Sudeste 0 -- -- 82
2019-06-17 12:00:00 22.1 9 Sur 14 Sudeste 0 -- -- 81
2019-06-17 11:00:00 21.2 6 Sudeste 9 Sudeste 0 -- -- 84
2019-06-17 10:00:00 20.4 5 Sudeste 10 Sudeste 0 -- -- 88
2019-06-17 09:00:00 20 7 Sudeste 12 Este 0 -- -- 92
2019-06-17 08:00:00 19.4 8 Sudeste 11 Sudeste 0 -- -- 94
2019-06-17 07:00:00 19.1 6 Sudeste 8 Sur 0 -- -- 94
2019-06-17 06:00:00 19.1 0 Calma 8 Sur 0 -- -- 94
2019-06-17 05:00:00 19.1 5 Sur 13 Sur 0 -- -- 95
2019-06-17 04:00:00 19.2 2 Sur 10 Sur 0 -- -- 94
2019-06-17 03:00:00 19.1 0 Calma 8 Sur 0 -- -- 94
2019-06-17 02:00:00 19.1 5 Sur 15 Sur 0 -- -- 94
2019-06-17 01:00:00 19.3 11 Sur 18 Sudoeste 0 -- -- 93
2019-06-17 00:00:00 19.6 15 Sudoeste 23 Sudoeste 0 -- -- 91
2019-06-16 23:00:00 19.7 13 Sudoeste 18 Sudoeste 0 -- -- 89
2019-06-16 22:00:00 19.9 12 Sudoeste 17 Sur 0 -- -- 87
2019-06-16 21:00:00 20.5 15 Sur 26 Sudoeste 0 -- -- 83
2019-06-16 20:00:00 20.7 17 Sudoeste 24 Sudoeste 0 -- -- 82
2019-06-16 19:00:00 21.7 15 Sur 23 Sur 0 -- -- 75
2019-06-16 18:00:00 21.8 16 Sur 25 Sur 0 -- -- 75
2019-06-16 17:00:00 22.3 17 Sur 28 Sur 0 -- -- 71
2019-06-16 16:00:00 22.7 21 Sur 28 Sur 0 -- -- 74
2019-06-16 15:00:00 22.6 19 Sur 26 Sur 0 -- -- 72
2019-06-16 14:00:00 22.8 16 Sur 21 Sur 0 -- -- 72
2019-06-16 13:00:00 22.7 13 Sur 22 Sur 0 -- -- 68
2019-06-16 12:00:00 22.8 10 Sur 16 Sur 0 -- -- 65
2019-06-16 11:00:00 21.9 7 Sudeste 13 Sudeste 0 -- -- 77
2019-06-16 10:00:00 20.5 0 Calma 6 Sudoeste 0 -- -- 81
2019-06-16 09:00:00 19.3 0 Calma 6 Oeste 0 -- -- 87
2019-06-16 08:00:00 18.9 0 Calma 4 Noroeste 0 -- -- 92
2019-06-16 07:00:00 18.3 0 Calma 4 Norte 0 -- -- 93
2019-06-16 06:00:00 18.3 0 Calma 5 Norte 0 -- -- 92
2019-06-16 05:00:00 18.5 0 Calma 5 Nordeste 0 -- -- 91
2019-06-16 04:00:00 18.7 0 Calma 5 Nordeste 0 -- -- 89
2019-06-16 03:00:00 19.5 0 Calma 5 Nordeste 0 -- -- 88
2019-06-16 02:00:00 19.6 0 Calma 11 Nordeste 0 -- -- 89
2019-06-16 01:00:00 19.9 4 Nordeste 15 Nordeste 0 -- -- 91
2019-06-16 00:00:00 19.8 3 Nordeste 16 Nordeste 0 -- -- 92
2019-06-15 23:00:00 20.1 4 Este 17 Nordeste 0 -- -- 93
2019-06-15 22:00:00 20.9 5 Este 18 Nordeste 0 -- -- 91
2019-06-15 21:00:00 22.2 2 Este 21 Sudoeste 0 -- -- 66
2019-06-15 20:00:00 23.6 15 Sudoeste 25 Sudoeste 0 -- -- 55
2019-06-15 19:00:00 23.9 19 Sudoeste 24 Sur 0 -- -- 51
2019-06-15 18:00:00 24.5 19 Sur 24 Sudoeste 0 -- -- 50
2019-06-15 17:00:00 24.7 18 Sur 26 Sur 0 -- -- 53
2019-06-15 16:00:00 24.6 17 Sur 23 Sur 0 -- -- 60
2019-06-15 15:00:00 24.2 17 Sur 22 Sudeste 0 -- -- 57
2019-06-15 14:00:00 27.3 6 Nordeste 22 Norte 0 -- -- 36
2019-06-15 13:00:00 25.6 12 Norte 24 Norte 0 -- -- 40
2019-06-15 12:00:00 25.2 4 Norte 19 Norte 0 -- -- 42
2019-06-15 11:00:00 23.2 11 Norte 32 Norte 0 -- -- 49
2019-06-15 10:00:00 21.3 19 Norte 31 Norte 0 -- -- 55
2019-06-15 09:00:00 20.3 14 Norte 27 Norte 0 -- -- 59
2019-06-15 08:00:00 19.8 16 Norte 28 Norte 0 -- -- 63
2019-06-15 07:00:00 19.2 19 Norte 34 Norte 0 -- -- 64
2019-06-15 06:00:00 19.3 14 Norte 25 Norte 0 -- -- 71
2019-06-15 05:00:00 19.1 2 Norte 12 Nordeste 0 -- -- 92
2019-06-15 04:00:00 19.3 3 Nordeste 16 Norte 0 -- -- 93
2019-06-15 03:00:00 19.6 0 Calma 9 Nordeste 0 -- -- 93
2019-06-15 02:00:00 19.6 0 Calma 12 Nordeste 0 -- -- 94
2019-06-15 01:00:00 19.7 4 Nordeste 9 Nordeste 0 -- -- 94
2019-06-15 00:00:00 19.9 0 Calma 8 Nordeste 0 -- -- 94
2019-06-14 23:00:00 20 2 Nordeste 12 Sudeste 0 -- -- 94
2019-06-14 22:00:00 20.4 0 Calma 18 Sur 0 -- -- 92
2019-06-14 21:00:00 20.6 14 Sur 21 Sur 0 -- -- 87
2019-06-14 20:00:00 21.8 15 Sur 25 Sur 0 -- -- 73
2019-06-14 19:00:00 22.2 17 Sur 28 Sur 0 -- -- 65
2019-06-14 18:00:00 22.7 21 Sur 28 Sur 0 -- -- 71
2019-06-14 17:00:00 22.8 21 Sur 28 Sur 0 -- -- 62
2019-06-14 16:00:00 22.7 19 Sur 29 Sur 0 -- -- 64
2019-06-14 15:00:00 22.5 19 Sur 28 Sur 0 -- -- 65
2019-06-14 14:00:00 22.2 20 Sur 28 Sudoeste 0 -- -- 65
2019-06-14 13:00:00 22.8 22 Sur 31 Sur 0 -- -- 61
2019-06-14 12:00:00 22.3 15 Sudoeste 32 Sudoeste 0 -- -- 62
2019-06-14 11:00:00 21.6 16 Sudoeste 27 Sur 0 -- -- 61
2019-06-14 10:00:00 20.5 4 Sudoeste 17 Sudoeste 0 -- -- 66
2019-06-14 09:00:00 19.4 4 Sudoeste 8 Oeste 0 -- -- 64
2019-06-14 08:00:00 18.1 2 Noroeste 13 Oeste 0 -- -- 64
2019-06-14 07:00:00 17.5 7 Oeste 13 Oeste 0 -- -- 65
2019-06-14 06:00:00 17.8 5 Oeste 12 Oeste 0 -- -- 63
2019-06-14 05:00:00 18.2 8 Noroeste 13 Oeste 0 -- -- 65
2019-06-14 04:00:00 18.8 5 Noroeste 16 Norte 0 -- -- 60
2019-06-14 03:00:00 18.4 8 Norte 17 Norte 0 -- -- 71
2019-06-14 02:00:00 18.6 9 Norte 18 Nordeste 0 -- -- 74
2019-06-14 01:00:00 18.1 3 Nordeste 11 Nordeste 0 -- -- 75
2019-06-14 00:00:00 18 2 Nordeste 11 Nordeste 0 -- -- 76
2019-06-13 23:00:00 17.8 2 Nordeste 11 Nordeste 0 -- -- 75
2019-06-13 22:00:00 18.1 4 Nordeste 13 Nordeste 0 -- -- 75
2019-06-13 21:00:00 18.9 5 Nordeste 14 Nordeste 0 -- -- 72
2019-06-13 20:00:00 19.4 5 Nordeste 16 Nordeste 0 -- -- 67
2019-06-13 19:00:00 19.6 7 Nordeste 19 Este 0 -- -- 69
2019-06-13 18:00:00 19.8 5 Nordeste 15 Nordeste 0 -- -- 69
2019-06-13 17:00:00 20.5 4 Este 13 Sudeste 0 -- -- 71
2019-06-13 16:00:00 20.1 3 Este 23 Sudeste 0 -- -- 75
2019-06-13 15:00:00 19 5 Este 26 Sudeste 0 -- -- 84
2019-06-13 14:00:00 19.9 4 Este 19 Este 0 -- -- 84
2019-06-13 13:00:00 19.6 4 Este 16 Este 0 -- -- 84
2019-06-13 12:00:00 19.9 4 Este 30 Sudeste 0 -- -- 83
2019-06-13 11:00:00 19.2 4 Este 13 Sudeste 0 -- -- 86
2019-06-13 10:00:00 18.9 4 Este 14 Este 0 -- -- 86
2019-06-13 09:00:00 18.5 3 Nordeste 15 Nordeste 0 -- -- 84
2019-06-13 08:00:00 17.9 2 Nordeste 13 Sudeste 0 -- -- 86
2019-06-13 07:00:00 17.9 3 Nordeste 12 Nordeste 0 -- -- 85
2019-06-13 06:00:00 17.9 3 Este 9 Nordeste 0 -- -- 85
2019-06-13 05:00:00 17.5 0 Calma 8 Nordeste 0 -- -- 85
2019-06-13 04:00:00 17.2 0 Calma -- -- 0 -- -- 87
2019-06-13 03:00:00 16.4 0 Calma 2 Este 0 -- -- 91
2019-06-13 02:00:00 16.1 0 Calma -- -- 0 -- -- 87
2019-06-13 01:00:00 16.6 0 Calma 6 Sur 0 -- -- 85
2019-06-13 00:00:00 17.4 4 Sur 9 Sur 0 -- -- 87
2019-06-12 23:00:00 17.6 7 Sur 12 Sur 0 -- -- 82
2019-06-12 22:00:00 17.8 8 Sur 17 Sudeste 0 -- -- 76
2019-06-12 21:00:00 18.6 13 Sur 18 Sudeste 0 -- -- 67
2019-06-12 20:00:00 19.4 12 Sudeste 21 Sur 0 -- -- 61
2019-06-12 19:00:00 19.7 15 Sur 25 Sur 0 -- -- 59
2019-06-12 18:00:00 19.9 16 Sur 24 Sur 0 -- -- 58
2019-06-12 17:00:00 20.1 15 Sur 22 Sur 0 -- -- 58
2019-06-12 16:00:00 20.3 13 Sur 24 Sur 0 -- -- 54
2019-06-12 15:00:00 19.9 17 Sur 26 Sur 0 -- -- 57
2019-06-12 14:00:00 19.6 16 Sur 23 Sur 0 -- -- 55
2019-06-12 13:00:00 19.1 14 Sudeste 20 Sur 0 -- -- 51
2019-06-12 12:00:00 19.8 3 Sudeste 12 Sur 0 -- -- 43
2019-06-12 11:00:00 18.6 0 Calma 9 Norte 0 -- -- 44
2019-06-12 10:00:00 16.8 4 Noroeste 14 Noroeste 0 -- -- 54
2019-06-12 09:00:00 15.4 9 Norte 16 Norte 0 -- -- 63
2019-06-12 08:00:00 14.1 4 Noroeste 10 Norte 0 -- -- 72
2019-06-12 07:00:00 13.6 5 Norte 13 Norte 0 -- -- 71
2019-06-12 06:00:00 13.4 6 Norte 16 Norte 0 -- -- 72
2019-06-12 05:00:00 13.3 8 Norte 14 Norte 0 -- -- 76
2019-06-12 04:00:00 13 0 Calma 4 Sur 0 -- -- 93
2019-06-12 03:00:00 13.7 0 Calma 6 Noroeste 0 -- -- 94
2019-06-12 02:00:00 13.7 0 Calma 6 Norte 0 -- -- 93
2019-06-12 01:00:00 14.4 0 Calma -- -- 0 -- -- 92
2019-06-12 00:00:00 14.8 0 Calma 2 Nordeste 0 -- -- 91
2019-06-11 23:00:00 14.3 0 Calma -- -- 0 -- -- 86
2019-06-11 22:00:00 15.4 0 Calma 11 Sudeste 0 -- -- 82
2019-06-11 21:00:00 15.8 6 Sudeste 23 Sudeste 0 -- -- 83
2019-06-11 20:00:00 15.9 13 Sudeste 24 Sudeste 0 -- -- 80
2019-06-11 19:00:00 15.9 0 Calma 17 Norte 0.1 -- -- 70
2019-06-11 18:00:00 16.7 9 Noroeste 26 Norte 0 -- -- 61
2019-06-11 17:00:00 16.4 14 Noroeste 37 Norte 0.1 -- -- 66
2019-06-11 16:00:00 17.9 18 Noroeste 40 Noroeste 0 -- -- 58
2019-06-11 15:00:00 17.8 18 Noroeste 44 Noroeste 0 -- -- 63
2019-06-11 14:00:00 17.2 22 Noroeste 46 Noroeste 0 -- -- 65
2019-06-11 13:00:00 16.6 22 Noroeste 42 Norte 0 -- -- 65
2019-06-11 12:00:00 16.5 26 Norte 47 Norte 0 -- -- 64
2019-06-11 11:00:00 16.3 27 Norte 48 Norte 0 -- -- 64
2019-06-11 10:00:00 16.1 24 Noroeste 42 Noroeste 0 -- -- 64
2019-06-11 09:00:00 16.4 21 Noroeste 41 Norte 0 -- -- 63
2019-06-11 08:00:00 16.8 23 Noroeste 39 Norte 0 -- -- 60
2019-06-11 07:00:00 17.3 19 Norte 35 Noroeste 0 -- -- 55
2019-06-11 06:00:00 17.6 15 Noroeste 31 Norte 0 -- -- 56
2019-06-11 05:00:00 17.6 16 Norte 30 Norte 0 -- -- 58
2019-06-11 04:00:00 18 15 Norte 22 Norte 0 -- -- 55
2019-06-11 03:00:00 18 3 Norte 13 Norte 0 -- -- 63
2019-06-11 02:00:00 19.2 6 Noroeste 14 Oeste 0 -- -- 60
2019-06-11 01:00:00 20.3 3 Norte 14 Oeste 0 -- -- 64
2019-06-11 00:00:00 19.9 8 Sur 19 Oeste 0.2 -- -- 81
2019-06-10 23:00:00 21 8 Oeste 22 Sudoeste 0 -- -- 84
2019-06-10 22:00:00 21.1 15 Sudoeste 25 Sudoeste 0 -- -- 72
2019-06-10 21:00:00 21.6 17 Sudoeste 22 Sudoeste 0 -- -- 64
2019-06-10 20:00:00 21.5 17 Sudoeste 25 Sudoeste 0 -- -- 69
2019-06-10 19:00:00 22.3 17 Sudoeste 27 Sudoeste 0 -- -- 64
2019-06-10 18:00:00 23.5 20 Sudoeste 27 Sudoeste 0 -- -- 56
2019-06-10 17:00:00 23.2 19 Sur 33 Sudoeste 0 -- -- 64
2019-06-10 16:00:00 23.5 24 Sur 32 Sur 0 -- -- 70
2019-06-10 15:00:00 26.7 6 Norte 20 Norte 0 -- -- 39
2019-06-10 14:00:00 25.6 12 Norte 27 Norte 0 -- -- 40
2019-06-10 13:00:00 24.6 14 Norte 34 Noroeste 0 -- -- 44
2019-06-10 12:00:00 23.2 17 Norte 30 Norte 0 -- -- 46
2019-06-10 11:00:00 23 4 Noroeste 10 Noroeste 0 -- -- 48
2019-06-10 10:00:00 20.5 8 Norte 21 Norte 0 -- -- 58
2019-06-10 09:00:00 19.1 7 Noroeste 17 Noroeste 0 -- -- 61
2019-06-10 08:00:00 18.7 8 Noroeste 16 Noroeste 0 -- -- 66
2019-06-10 07:00:00 18.5 4 Norte 22 Noroeste 0 -- -- 65
2019-06-10 06:00:00 18.6 10 Noroeste 22 Noroeste 0 -- -- 63
2019-06-10 05:00:00 16.9 4 Noroeste 12 Norte 0 -- -- 87
2019-06-10 04:00:00 17.8 0 Calma 5 Nordeste 0 -- -- 93
2019-06-10 03:00:00 17.8 0 Calma 9 Nordeste 0 -- -- 92
2019-06-10 02:00:00 17.9 2 Nordeste 6 Nordeste 0 -- -- 93
2019-06-10 01:00:00 18.2 0 Calma 9 Sudeste 0 -- -- 92
2019-06-10 00:00:00 18.7 0 Calma 5 Sudeste 0 -- -- 89
2019-06-09 23:00:00 18.8 0 Calma 6 Sur 0 -- -- 83
2019-06-09 22:00:00 19.5 6 Sur 9 Sur 0 -- -- 81
2019-06-09 21:00:00 20.7 7 Sur 16 Sudoeste 0 -- -- 69
2019-06-09 20:00:00 22.2 12 Sudoeste 18 Sudoeste 0 -- -- 47
2019-06-09 19:00:00 22.3 9 Sudoeste 21 Sur 0 -- -- 51
2019-06-09 18:00:00 21.9 11 Sur 19 Sur 0 -- -- 56
2019-06-09 17:00:00 21 9 Sur 17 Sur 0 -- -- 59
2019-06-09 16:00:00 22.2 3 Sudoeste 11 Norte 0 -- -- 50
2019-06-09 15:00:00 21.8 5 Sudoeste 13 Oeste 0 -- -- 45
2019-06-09 14:00:00 22 6 Sudoeste 12 Oeste 0 -- -- 51
2019-06-09 13:00:00 22 3 Noroeste 10 Norte 0 -- -- 45
2019-06-09 12:00:00 21.5 4 Norte 13 Norte 0 -- -- 43
2019-06-09 11:00:00 22 0 Calma 8 Oeste 0 -- -- 57
2019-06-09 10:00:00 19.3 3 Sudoeste 7 Sudoeste 0 -- -- 71
2019-06-09 09:00:00 18.1 0 Calma 10 Oeste 0 -- -- 69
2019-06-09 08:00:00 18.2 4 Noroeste 16 Oeste 0 -- -- 66
2019-06-09 07:00:00 17.6 7 Noroeste 14 Noroeste 0 -- -- 66
2019-06-09 06:00:00 17.6 6 Noroeste 16 Noroeste 0 -- -- 59
2019-06-09 05:00:00 17.6 6 Noroeste 12 Noroeste 0 -- -- 68
2019-06-09 04:00:00 18 4 Noroeste 10 Norte 0 -- -- 77
2019-06-09 03:00:00 18.6 6 Norte 14 Norte 0 -- -- 72
2019-06-09 02:00:00 18.7 11 Norte 16 Norte 0 -- -- 76
2019-06-09 01:00:00 18.7 7 Norte 15 Norte 0 -- -- 77
2019-06-09 00:00:00 18.7 6 Norte 12 Norte 0 -- -- 75
2019-06-08 23:00:00 18.8 4 Norte 9 Norte 0 -- -- 70
2019-06-08 22:00:00 18.8 2 Nordeste 9 Norte 0 -- -- 67
2019-06-08 21:00:00 19.3 3 Norte 10 Nordeste 0 -- -- 66
2019-06-08 20:00:00 20.2 3 Nordeste 11 Nordeste 0 -- -- 63
2019-06-08 19:00:00 20.7 3 Nordeste 13 Sudeste 0 -- -- 60
2019-06-08 18:00:00 21.1 3 Este 17 Sudeste 0 -- -- 59
2019-06-08 17:00:00 21.3 3 Este 22 Sudeste 0 -- -- 60
2019-06-08 16:00:00 21.2 3 Este 26 Sudeste 0 -- -- 61
2019-06-08 15:00:00 20.3 15 Sudeste 26 Sudeste 0 -- -- 64
2019-06-08 14:00:00 20.8 11 Sudeste 22 Sudeste 0 -- -- 72
2019-06-08 13:00:00 21 12 Sudeste 20 Sudeste 0 -- -- 65
2019-06-08 12:00:00 20.5 6 Sudeste 19 Sudeste 0 -- -- 64
2019-06-08 11:00:00 20.9 5 Este 15 Sudeste 0 -- -- 60
2019-06-08 10:00:00 20 4 Norte 9 Norte 0 -- -- 70
2019-06-08 09:00:00 19.2 0 Calma 7 Nordeste 0 -- -- 71
2019-06-08 08:00:00 18.8 0 Calma 6 Norte 0 -- -- 76
2019-06-08 07:00:00 17.3 0 Calma 7 Nordeste 0 -- -- 82
2019-06-08 06:00:00 18.1 3 Nordeste 10 Nordeste 0 -- -- 78
2019-06-08 05:00:00 18.7 3 Este 14 Nordeste 0 -- -- 74
2019-06-08 04:00:00 19 5 Este 23 Norte 0 -- -- 75
2019-06-08 03:00:00 19.3 8 Este 26 Nordeste 0 -- -- 78
2019-06-08 02:00:00 19.6 8 Nordeste 21 Nordeste 0 -- -- 88
2019-06-08 01:00:00 19.5 6 Norte 9 Noroeste 0 -- -- 69
2019-06-08 00:00:00 20.3 6 Norte 11 Norte 0 -- -- 64
2019-06-07 23:00:00 20.4 0 Calma 8 Oeste 0 -- -- 76
2019-06-07 22:00:00 21.1 4 Sudoeste 8 Sudoeste 0 -- -- 78
2019-06-07 21:00:00 22.3 5 Sur 8 Sur 0 -- -- 69
2019-06-07 20:00:00 22.9 8 Sur 13 Sur 0 -- -- 65
2019-06-07 19:00:00 23.2 7 Sudeste 10 Sur 0 -- -- 59
2019-06-07 18:00:00 22.9 9 Sur 15 Sur 0 -- -- 65
2019-06-07 17:00:00 22.6 13 Sur 17 Sur 0 -- -- 71
2019-06-07 16:00:00 21.9 14 Sur 24 Sur 0 -- -- 77
2019-06-07 15:00:00 22.5 16 Sur 22 Sur 0 -- -- 76
2019-06-07 14:00:00 23.6 6 Sur 20 Sudeste 0 -- -- 61
2019-06-07 13:00:00 23.2 4 Sudeste 17 Este 0 -- -- 68
2019-06-07 12:00:00 22.7 2 Oeste 10 Sur 0 -- -- 68
2019-06-07 11:00:00 21.6 2 Sudoeste 14 Sudeste 0 -- -- 76
2019-06-07 10:00:00 20.5 7 Sur 11 Sur 0 -- -- 84
2019-06-07 09:00:00 19.5 7 Sur 15 Sudeste 0 -- -- 89
2019-06-07 08:00:00 18.9 4 Sudoeste 8 Sudoeste 0 -- -- 93
2019-06-07 07:00:00 18.2 6 Sur 10 Sudoeste 0 -- -- 94
2019-06-07 06:00:00 18.2 7 Sur 11 Sur 0 -- -- 94
2019-06-07 05:00:00 18.5 9 Sur 16 Sur 0 -- -- 93
2019-06-07 04:00:00 18.9 11 Sur 16 Sur 0 -- -- 94
2019-06-07 03:00:00 19.1 7 Sur 13 Sudeste 0 -- -- 93
2019-06-07 02:00:00 19.2 8 Sudeste 15 Sudeste 0 -- -- 91
2019-06-07 01:00:00 19.1 3 Este 19 Sudeste 0 -- -- 91
2019-06-07 00:00:00 19.7 15 Sudeste 22 Sudeste 0 -- -- 91
2019-06-06 23:00:00 19.4 0 Calma 7 Este 0 -- -- 89
2019-06-06 22:00:00 19.4 0 Calma 9 Este 0 -- -- 89
2019-06-06 21:00:00 19.7 4 Sudeste 21 Sudeste 0 -- -- 89
2019-06-06 20:00:00 20.2 12 Sudeste 23 Este 0 -- -- 88
2019-06-06 19:00:00 20.4 14 Sudeste 24 Este 0 -- -- 86
2019-06-06 18:00:00 21.4 17 Sudeste 28 Sudeste 0 -- -- 83
2019-06-06 17:00:00 22.3 16 Sudeste 22 Sudeste 0 -- -- 79
2019-06-06 16:00:00 21.8 14 Sudeste 26 Sudeste 0 -- -- 82
2019-06-06 15:00:00 21.5 15 Sudeste 23 Sudeste 0 -- -- 82
2019-06-06 14:00:00 21.1 17 Sudeste 24 Sudeste 0 -- -- 80
2019-06-06 13:00:00 20.3 16 Sudeste 23 Este 0 -- -- 76
2019-06-06 12:00:00 20.5 0 Calma 13 Nordeste 0 -- -- 61
2019-06-06 11:00:00 20.4 2 Este 13 Nordeste 0 -- -- 56
2019-06-06 10:00:00 19.2 5 Nordeste 13 Norte 0 -- -- 52
2019-06-06 09:00:00 17.8 11 Norte 17 Norte 0 -- -- 61
2019-06-06 08:00:00 17.2 8 Norte 13 Norte 0 -- -- 66
2019-06-06 07:00:00 16.6 9 Norte 16 Norte 0 -- -- 66
2019-06-06 06:00:00 15.1 0 Calma 5 Noroeste 0 -- -- 78
2019-06-06 05:00:00 16.4 6 Oeste 12 Noroeste 0 -- -- 68
2019-06-06 04:00:00 17.4 6 Noroeste 13 Oeste 0 -- -- 64
2019-06-06 03:00:00 17.6 5 Noroeste 12 Noroeste 0 -- -- 60
2019-06-06 02:00:00 17.2 3 Oeste 14 Noroeste 0 -- -- 67
2019-06-06 01:00:00 18.6 8 Noroeste 29 Noroeste 0 -- -- 57
2019-06-06 00:00:00 19.3 19 Noroeste 31 Noroeste 0 -- -- 53
2019-06-05 23:00:00 20 12 Noroeste 28 Noroeste 0 -- -- 49
2019-06-05 22:00:00 20.5 10 Noroeste 30 Oeste 0 -- -- 47
2019-06-05 21:00:00 21.2 10 Noroeste 33 Noroeste 0 -- -- 47
2019-06-05 20:00:00 22.8 10 Noroeste 32 Noroeste 0 -- -- 42
2019-06-05 19:00:00 23.4 15 Noroeste 36 Norte 0 -- -- 40
2019-06-05 18:00:00 22.7 20 Noroeste 44 Oeste 0 -- -- 43
2019-06-05 17:00:00 22.6 12 Noroeste 46 Oeste 0 -- -- 45
2019-06-05 16:00:00 20.2 11 Noroeste 44 Noroeste 0.1 -- -- 56
2019-06-05 15:00:00 18.5 19 Noroeste 48 Noroeste 0.2 -- -- 71
2019-06-05 14:00:00 21 19 Noroeste 41 Noroeste 0 -- -- 66
2019-06-05 13:00:00 22.5 6 Norte 17 Norte 0 -- -- 66
2019-06-05 12:00:00 21.5 3 Oeste 9 Sudeste 0 -- -- 72
2019-06-05 11:00:00 21.3 4 Sur 14 Sudeste 0 -- -- 80
2019-06-05 10:00:00 20.1 8 Este 15 Este 0 -- -- 86
2019-06-05 09:00:00 20.1 4 Sudeste 17 Sudeste 0 -- -- 89
2019-06-05 08:00:00 19.2 9 Este 18 Sudeste 0 -- -- 93
2019-06-05 07:00:00 19 12 Sudeste 16 Sudeste 0 -- -- 94
2019-06-05 06:00:00 18.9 6 Este 14 Sudeste 0 -- -- 94
2019-06-05 05:00:00 18.9 7 Sudeste 11 Sudeste 0 -- -- 94
2019-06-05 04:00:00 19 0 Calma 11 Sudeste 0 -- -- 94
2019-06-05 03:00:00 19.2 8 Sudeste 14 Este 0 -- -- 94
2019-06-05 02:00:00 -- 0 Calma 12 Este 0 -- -- --
2019-06-05 01:00:00 19.4 3 Sudeste 14 Sudeste 0 -- -- 93
2019-06-05 00:00:00 19.8 4 Sudeste 10 Sudeste 0 -- -- 93
2019-06-04 23:00:00 19.8 2 Sudeste 10 Sudeste 0 -- -- 91
2019-06-04 22:00:00 19.9 7 Este 17 Sudeste 0 -- -- 89
2019-06-04 21:00:00 20.5 10 Sudeste 13 Sudeste 0 -- -- 87
2019-06-04 20:00:00 20.8 10 Sudeste 21 Sudeste 0 -- -- 84
2019-06-04 19:00:00 21 11 Sudeste 24 Sudeste 0 -- -- 84
2019-06-04 18:00:00 21.6 14 Sudeste 21 Sur 0 -- -- 83
2019-06-04 17:00:00 21.3 14 Sudeste 22 Sudeste 0 -- -- 82
2019-06-04 16:00:00 22.2 14 Sudeste 26 Sudeste 0 -- -- 81
2019-06-04 15:00:00 22.1 15 Sudeste 24 Sur 0 -- -- 78
2019-06-04 14:00:00 21.8 14 Sudeste 22 Sudeste 0 -- -- 78
2019-06-04 13:00:00 21.9 14 Sur 22 Sudeste 0 -- -- 78
2019-06-04 12:00:00 21.6 13 Sur 19 Sudeste 0 -- -- 81
2019-06-04 11:00:00 21.2 10 Sur 14 Sur 0 -- -- 81
2019-06-04 10:00:00 20.6 9 Sur 13 Sur 0 -- -- 83
2019-06-04 09:00:00 19.3 4 Sur 6 Sur 0 -- -- 94
2019-06-04 08:00:00 19 0 Calma 6 Sudeste 0 -- -- 95
2019-06-04 07:00:00 18.1 5 Este 9 Sudeste 0 -- -- 95
2019-06-04 06:00:00 18.4 6 Sudeste 11 Sudeste 0 -- -- 96
2019-06-04 05:00:00 18.6 9 Sudeste 12 Sur 0 -- -- 96
2019-06-04 04:00:00 18.5 8 Sudeste 15 Sudeste 0 -- -- 94
2019-06-04 03:00:00 18.7 12 Sudeste 15 Sudeste 0 -- -- 94
2019-06-04 02:00:00 18.8 12 Sudeste 15 Sudeste 0 -- -- 94
2019-06-04 01:00:00 19.2 10 Sudeste 13 Sudeste 0 -- -- 94
2019-06-04 00:00:00 19.6 10 Sudeste 13 Sudeste 0 -- -- 94
2019-06-03 23:00:00 19.7 9 Sudeste 12 Sudeste 0 -- -- 93
2019-06-03 22:00:00 20.2 8 Sudeste 13 Sudeste 0 -- -- 92
2019-06-03 21:00:00 20.5 9 Sudeste 15 Sudeste 0 -- -- 88
2019-06-03 20:00:00 21.2 11 Sur 19 Sur 0 -- -- 82
2019-06-03 19:00:00 21 14 Sur 28 Sudeste 0 -- -- 87
2019-06-03 18:00:00 21.3 15 Sur 31 Sur 0 -- -- 81
2019-06-03 17:00:00 22.2 25 Sur 31 Sur 0 -- -- 75
2019-06-03 16:00:00 21.7 23 Sur 31 Sudeste 0 -- -- 80
2019-06-03 15:00:00 22.2 21 Sudeste 28 Sudeste 0 -- -- 78
2019-06-03 14:00:00 22.2 19 Sudeste 24 Sudeste 0 -- -- 80
2019-06-03 13:00:00 22.3 14 Sur 21 Sudeste 0 -- -- 82
2019-06-03 12:00:00 21.1 15 Sur 24 Sur 0 -- -- 84
2019-06-03 11:00:00 20.8 15 Sur 21 Sudeste 0 -- -- 87
2019-06-03 10:00:00 20.3 13 Sur 18 Sur 0 -- -- 89
2019-06-03 09:00:00 19.5 13 Sur 18 Sur 0 -- -- 90
2019-06-03 08:00:00 18.7 11 Sur 15 Sur 0 -- -- 93
2019-06-03 07:00:00 17.7 7 Sur 9 Sur 0 -- -- 95
2019-06-03 06:00:00 17.2 0 Calma 10 Sudoeste 0 -- -- 94
2019-06-03 05:00:00 17.8 10 Sur 12 Sur 0 -- -- 93
2019-06-03 04:00:00 18.1 6 Sur 15 Sur 0 -- -- 94
2019-06-03 03:00:00 18.4 11 Sur 15 Sur 0 -- -- 92
2019-06-03 02:00:00 18.5 11 Sur 14 Sur 0 -- -- 91
2019-06-03 01:00:00 18.7 9 Sur 13 Sur 0 -- -- 92
2019-06-03 00:00:00 19.1 10 Sudeste 15 Sudeste 0 -- -- 94
2019-06-02 23:00:00 19.3 11 Sur 18 Sur 0 -- -- 94
2019-06-02 22:00:00 19.6 12 Sur 22 Sur 0 -- -- 92
2019-06-02 21:00:00 19.9 18 Sur 28 Sur 0 -- -- 87
2019-06-02 20:00:00 21.1 22 Sur 29 Sur 0 -- -- 78
2019-06-02 19:00:00 21.5 22 Sur 31 Sur 0 -- -- 75
2019-06-02 18:00:00 22 23 Sur 29 Sur 0 -- -- 72
2019-06-02 17:00:00 22.5 22 Sur 29 Sur 0 -- -- 65
2019-06-02 16:00:00 22.3 21 Sur 28 Sur 0 -- -- 73
2019-06-02 15:00:00 21.9 21 Sur 29 Sur 0 -- -- 75
2019-06-02 14:00:00 22.5 18 Sur 28 Sur 0 -- -- 76
2019-06-02 13:00:00 21.3 20 Sur 29 Sur 0 -- -- 80
2019-06-02 12:00:00 21.1 18 Sur 26 Sur 0 -- -- 81
2019-06-02 11:00:00 21.3 13 Sur 17 Sur 0 -- -- 75
2019-06-02 10:00:00 20.4 10 Sur 13 Sur 0 -- -- 78
2019-06-02 09:00:00 18.6 0 Calma -- -- 0 -- -- 86
2019-06-02 08:00:00 18.2 0 Calma 4 Sudoeste 0 -- -- 91
2019-06-02 07:00:00 17 4 Sudoeste 7 Sudoeste 0 -- -- 94
2019-06-02 06:00:00 17.2 6 Sudoeste 8 Sudoeste 0 -- -- 93
2019-06-02 05:00:00 17.8 4 Sudoeste 13 Sudoeste 0 -- -- 93
2019-06-02 04:00:00 17.9 10 Sudoeste 15 Sur 0 -- -- 88
2019-06-02 03:00:00 18.2 10 Sur 16 Sur 0 -- -- 92
2019-06-02 02:00:00 18.3 10 Sur 16 Sur 0 -- -- 93
2019-06-02 01:00:00 18.5 12 Sur 16 Sur 0 -- -- 93
2019-06-02 00:00:00 18.9 13 Sur 19 Sur 0 -- -- 91
2019-06-01 23:00:00 19.2 15 Sur 23 Sur 0 -- -- 85
2019-06-01 22:00:00 19.4 16 Sur 25 Sur 0 -- -- 83
2019-06-01 21:00:00 20.2 18 Sur 26 Sur 0 -- -- 76
2019-06-01 20:00:00 21.1 19 Sur 25 Sur 0 -- -- 66
2019-06-01 19:00:00 22.1 19 Sur 29 Sur 0 -- -- 66
2019-06-01 18:00:00 22.2 22 Sur 29 Sur 0 -- -- 64
2019-06-01 17:00:00 22 22 Sur 28 Sur 0 -- -- 71
2019-06-01 16:00:00 22.1 20 Sur 27 Sur 0 -- -- 72
2019-06-01 15:00:00 22 21 Sur 26 Sur 0 -- -- 72
2019-06-01 14:00:00 21.8 20 Sur 27 Sur 0 -- -- 72
2019-06-01 13:00:00 22.2 17 Sur 23 Sur 0 -- -- 72
2019-06-01 12:00:00 21.8 14 Sur 20 Sur 0 -- -- 70
2019-06-01 11:00:00 20.9 12 Sur 17 Sur 0 -- -- 72
2019-06-01 10:00:00 20.4 9 Sur 12 Sur 0 -- -- 73
2019-06-01 09:00:00 18.4 0 Calma -- -- 0 -- -- 83
2019-06-01 08:00:00 17.8 0 Calma 2 Sudoeste 0 -- -- 92
2019-06-01 07:00:00 17 0 Calma 4 Sudoeste 0 -- -- 94
2019-06-01 06:00:00 17 0 Calma 7 Oeste 0 -- -- 93
2019-06-01 05:00:00 17.5 4 Oeste 8 Sudoeste 0 -- -- 93
2019-06-01 04:00:00 17.7 6 Sudoeste 12 Sudoeste 0 -- -- 92
2019-06-01 03:00:00 18 5 Sudoeste 14 Sur 0 -- -- 90
2019-06-01 02:00:00 18.1 9 Sur 13 Sur 0 -- -- 86
2019-06-01 01:00:00 18.4 10 Sur 17 Sudoeste 0 -- -- 83
2019-06-01 00:00:00 18.7 11 Sudoeste 19 Sur 0 -- -- 81
2019-05-31 23:00:00 18.8 14 Sur 18 Sudoeste 0 -- -- 83
2019-05-31 22:00:00 19.3 14 Sur 19 Sur 0 -- -- 79
2019-05-31 21:00:00 19.6 14 Sur 22 Sur 0 -- -- 75
2019-05-31 20:00:00 20.7 18 Sur 26 Sur 0 -- -- 72
2019-05-31 19:00:00 21.7 19 Sur 27 Sur 0 -- -- 75
2019-05-31 18:00:00 21.5 21 Sur 27 Sur 0 -- -- 82
2019-05-31 17:00:00 21.8 19 Sur 24 Sur 0 -- -- 79
2019-05-31 16:00:00 21.2 19 Sur 25 Sur 0 -- -- 81
2019-05-31 15:00:00 21.4 19 Sur 26 Sudeste 0 -- -- 80
2019-05-31 14:00:00 20.7 20 Sudeste 25 Sudeste 0 -- -- 85
2019-05-31 13:00:00 20.4 18 Sudeste 23 Sudeste 0 -- -- 84
2019-05-31 12:00:00 20.1 15 Sudeste 21 Sudeste 0 -- -- 84
2019-05-31 11:00:00 19.7 5 Sudeste 14 Sudeste 0 -- -- 82
2019-05-31 10:00:00 19.1 0 Calma 6 Nordeste 0 -- -- 87
2019-05-31 09:00:00 17.9 0 Calma 9 Nordeste 0 -- -- 92
2019-05-31 08:00:00 17 5 Nordeste 10 Nordeste 0 -- -- 94
2019-05-31 07:00:00 16.7 0 Calma -- -- 0 -- -- 95
2019-05-31 06:00:00 16.3 0 Calma -- -- 0 -- -- 94
2019-05-31 05:00:00 16.7 0 Calma 8 Sur 0 -- -- 93
2019-05-31 04:00:00 17.1 7 Sur 9 Sur 0 -- -- 94
2019-05-31 03:00:00 17.2 3 Sudeste 8 Sudeste 0 -- -- 94
2019-05-31 02:00:00 17.5 6 Sudeste 10 Sudeste 0 -- -- 92
2019-05-31 01:00:00 17.6 5 Sudeste 8 Sur 0 -- -- 92
2019-05-31 00:00:00 18.1 4 Sudeste 18 Sur 0 -- -- 88
2019-05-30 23:00:00 18.3 15 Sur 22 Sur 0 -- -- 86
2019-05-30 22:00:00 18.8 17 Sur 26 Sur 0 -- -- 83
2019-05-30 21:00:00 19.2 20 Sur 30 Sur 0 -- -- 81
2019-05-30 20:00:00 19.8 21 Sur 30 Sur 0 -- -- 83
2019-05-30 19:00:00 20.5 20 Sur 27 Sur 0 -- -- 76
2019-05-30 18:00:00 21.4 20 Sur 26 Sur 0 -- -- 73
2019-05-30 17:00:00 21.2 20 Sur 26 Sur 0 -- -- 71
2019-05-30 16:00:00 22.2 17 Sur 24 Sur 0 -- -- 76
2019-05-30 15:00:00 21.7 17 Sur 23 Sur 0 -- -- 73
2019-05-30 14:00:00 21.1 19 Sur 23 Sudeste 0 -- -- 71
2019-05-30 13:00:00 20.8 17 Sudeste 22 Sudeste 0 -- -- 67
2019-05-30 12:00:00 20.2 13 Sudeste 18 Sudeste 0 -- -- 65
2019-05-30 11:00:00 20.9 0 Calma 7 Este 0 -- -- 51
2019-05-30 10:00:00 18.6 0 Calma 11 Norte 0 -- -- 56
2019-05-30 09:00:00 17.2 6 Norte 10 Norte 0 -- -- 61
2019-05-30 08:00:00 16.3 6 Norte 10 Norte 0 -- -- 70
2019-05-30 07:00:00 15.7 3 Nordeste 8 Nordeste 0 -- -- 75
2019-05-30 06:00:00 15.4 0 Calma 7 Nordeste 0 -- -- 83
2019-05-30 05:00:00 15.9 0 Calma 7 Este 0 -- -- 92
2019-05-30 04:00:00 16.2 2 Sudeste 13 Sudeste 0 -- -- 91
2019-05-30 03:00:00 16.5 3 Sudeste 12 Nordeste 0 -- -- 91
2019-05-30 02:00:00 16.9 3 Nordeste 9 Nordeste 0 -- -- 88
2019-05-30 01:00:00 17 2 Nordeste 12 Sudoeste 0 -- -- 85
2019-05-30 00:00:00 17.4 8 Sudoeste 26 Sudoeste 0 -- -- 84
2019-05-29 23:00:00 17.7 17 Sudoeste 29 Sudoeste 0 -- -- 80
2019-05-29 22:00:00 17.7 21 Sudoeste 35 Sudoeste 0 -- -- 77
2019-05-29 21:00:00 18.4 29 Sudoeste 37 Sudoeste 0 -- -- 72
2019-05-29 20:00:00 18.9 30 Sudoeste 40 Sudoeste 0 -- -- 78
2019-05-29 19:00:00 20.4 27 Sudoeste 35 Sur 0 -- -- 76
2019-05-29 18:00:00 20.8 21 Sur 27 Sur 0 -- -- 68
2019-05-29 17:00:00 22.5 17 Sur 25 Sur 0 -- -- 57
2019-05-29 16:00:00 22.9 11 Sur 25 Oeste 0 -- -- 45
2019-05-29 15:00:00 24.7 8 Noroeste 32 Noroeste 0 -- -- 38
2019-05-29 14:00:00 23.4 11 Noroeste 30 Noroeste 0 -- -- 43
2019-05-29 13:00:00 21.8 13 Norte 29 Noroeste 0 -- -- 45
2019-05-29 12:00:00 20.4 16 Noroeste 28 Noroeste 0 -- -- 49
2019-05-29 11:00:00 18.9 15 Noroeste 37 Norte 0 -- -- 53
2019-05-29 10:00:00 17.6 20 Noroeste 41 Norte 0 -- -- 58
2019-05-29 09:00:00 16.3 14 Noroeste 40 Norte 0 -- -- 63
2019-05-29 08:00:00 15.1 23 Noroeste 42 Norte 0 -- -- 65
2019-05-29 07:00:00 14.4 17 Noroeste 37 Noroeste 0 -- -- 66
2019-05-29 06:00:00 14.5 13 Noroeste 43 Noroeste 0 -- -- 64
2019-05-29 05:00:00 15 22 Noroeste 46 Noroeste 0 -- -- 60
2019-05-29 04:00:00 15.4 20 Noroeste 52 Norte 0 -- -- 58
2019-05-29 03:00:00 16 16 Noroeste 34 Norte 0 -- -- 56
2019-05-29 02:00:00 16.3 10 Noroeste 35 Noroeste 0 -- -- 54
2019-05-29 01:00:00 17.1 12 Noroeste 49 Noroeste 0 -- -- 50
2019-05-29 00:00:00 17.8 14 Noroeste 50 Noroeste 0 -- -- 48
2019-05-28 23:00:00 18.3 13 Noroeste 53 Noroeste 0 -- -- 49
2019-05-28 22:00:00 19.1 26 Noroeste 51 Noroeste 0 -- -- 47
2019-05-28 21:00:00 20 18 Noroeste 51 Norte 0 -- -- 47
2019-05-28 20:00:00 21.8 14 Noroeste 47 Noroeste 0 -- -- 45
2019-05-28 19:00:00 23.4 14 Noroeste 40 Noroeste 0 -- -- 43
2019-05-28 18:00:00 23.7 13 Noroeste 39 Noroeste 0 -- -- 42
2019-05-28 17:00:00 24 17 Noroeste 47 Oeste 0 -- -- 42
2019-05-28 16:00:00 24.4 15 Noroeste 47 Noroeste 0 -- -- 42
2019-05-28 15:00:00 23.9 14 Noroeste 40 Noroeste 0 -- -- 42
2019-05-28 14:00:00 23.2 14 Noroeste 45 Noroeste 0 -- -- 44
2019-05-28 13:00:00 21.9 16 Noroeste 45 Noroeste 0 -- -- 47
2019-05-28 12:00:00 20.6 18 Noroeste 44 Noroeste 0 -- -- 50
2019-05-28 11:00:00 18.9 20 Noroeste 53 Noroeste 0 -- -- 53
2019-05-28 10:00:00 17.6 19 Noroeste 37 Norte 0 -- -- 56
2019-05-28 09:00:00 16.6 17 Noroeste 36 Norte 0 -- -- 59
2019-05-28 08:00:00 15.7 17 Noroeste 36 Noroeste 0 -- -- 60
2019-05-28 07:00:00 15.4 14 Noroeste 39 Noroeste 0 -- -- 61
2019-05-28 06:00:00 15.9 28 Norte 51 Norte 0 -- -- 60
2019-05-28 05:00:00 16.8 27 Noroeste 54 Noroeste 0 -- -- 58
2019-05-28 04:00:00 17.2 19 Noroeste 40 Noroeste 0 -- -- 58
2019-05-28 03:00:00 18.1 15 Noroeste 34 Norte 0 -- -- 56
2019-05-28 02:00:00 18.6 11 Noroeste 38 Noroeste 0 -- -- 59
2019-05-28 01:00:00 19.8 9 Noroeste 26 Noroeste 0 -- -- 61
2019-05-28 00:00:00 20.2 9 Oeste 21 Oeste 0 -- -- 67
2019-05-27 23:00:00 18.7 10 Sudoeste 25 Sur 0 -- -- 88
2019-05-27 22:00:00 18.7 19 Sudoeste 31 Sudoeste 0 -- -- 88
2019-05-27 21:00:00 19.1 25 Sudoeste 33 Sudoeste 0 -- -- 83
2019-05-27 20:00:00 19.7 23 Sudoeste 36 Sudoeste 0 -- -- 80
2019-05-27 19:00:00 19.6 28 Sudoeste 37 Sur 0 -- -- 80
2019-05-27 18:00:00 20.4 28 Sur 34 Sudoeste 0 -- -- 76
2019-05-27 17:00:00 21.3 28 Sudoeste 35 Sudoeste 0 -- -- 71
2019-05-27 16:00:00 21.5 27 Sudoeste 33 Sudoeste 0 -- -- 70
2019-05-27 15:00:00 22.5 24 Sur 31 Sur 0 -- -- 67
2019-05-27 14:00:00 23.9 9 Norte 33 Norte 0 -- -- 49
2019-05-27 13:00:00 21.5 21 Norte 36 Norte 0 -- -- 57
2019-05-27 12:00:00 20.7 19 Norte 32 Norte 0 -- -- 57
2019-05-27 11:00:00 20.6 6 Oeste 30 Noroeste 0 -- -- 57
2019-05-27 10:00:00 19.3 0 Calma 15 Noroeste 0 -- -- 59
2019-05-27 09:00:00 17.7 0 Calma 11 Norte 0 -- -- 66
2019-05-27 08:00:00 16.9 4 Norte 23 Noroeste 0 -- -- 70
2019-05-27 07:00:00 16.6 11 Noroeste 24 Noroeste 0 -- -- 72
2019-05-27 06:00:00 16.2 6 Norte 11 Noroeste 0 -- -- 76
2019-05-27 05:00:00 16.2 4 Noroeste 17 Oeste 0 -- -- 77
2019-05-27 04:00:00 17 3 Norte 8 Noroeste 0 -- -- 71
2019-05-27 03:00:00 17.8 3 Noroeste 10 Nordeste 0 -- -- 66
2019-05-27 02:00:00 18.1 4 Noroeste 14 Sudoeste 0 -- -- 72
2019-05-27 01:00:00 18.9 4 Noroeste 19 Noroeste 0 -- -- 67
2019-05-27 00:00:00 18.5 7 Oeste 14 Sudoeste 0 -- -- 72
2019-05-26 23:00:00 18.4 14 Sudoeste 20 Sudoeste 0 -- -- 85
2019-05-26 22:00:00 19.1 13 Sudoeste 27 Sudoeste 0 -- -- 80
2019-05-26 21:00:00 19.6 21 Sudoeste 27 Sudoeste 0 -- -- 81
2019-05-26 20:00:00 20.8 19 Sudoeste 30 Sudoeste 0 -- -- 71
2019-05-26 19:00:00 21.1 24 Sudoeste 30 Sudoeste 0 -- -- 73
2019-05-26 18:00:00 21.5 24 Sudoeste 29 Sudoeste 0 -- -- 72
2019-05-26 17:00:00 22.6 22 Sudoeste 31 Sudoeste 0 -- -- 68
2019-05-26 16:00:00 24.6 17 Norte 34 Norte 0 -- -- 43
2019-05-26 15:00:00 24.4 14 Noroeste 32 Noroeste 0 -- -- 45
2019-05-26 14:00:00 23.1 22 Noroeste 39 Norte 0 -- -- 48
2019-05-26 13:00:00 22.3 17 Noroeste 32 Noroeste 0 -- -- 50
2019-05-26 12:00:00 21.6 12 Noroeste 34 Norte 0 -- -- 54
2019-05-26 11:00:00 20.6 10 Noroeste 40 Norte 0 -- -- 56
2019-05-26 10:00:00 18.1 20 Noroeste 40 Norte 0 -- -- 63
2019-05-26 09:00:00 16.7 13 Noroeste 30 Noroeste 0 -- -- 67
2019-05-26 08:00:00 15.7 6 Noroeste 21 Noroeste 0 -- -- 71
2019-05-26 07:00:00 14.9 4 Noroeste 17 Noroeste 0 -- -- 75
2019-05-26 06:00:00 15.9 9 Noroeste 28 Noroeste 0 -- -- 71
2019-05-26 05:00:00 15.8 6 Noroeste 18 Noroeste 0 -- -- 72
2019-05-26 04:00:00 16.2 5 Noroeste 22 Noroeste 0 -- -- 69
2019-05-26 03:00:00 17.3 8 Noroeste 25 Noroeste 0 -- -- 66
2019-05-26 02:00:00 17.7 12 Noroeste 23 Noroeste 0 -- -- 64
2019-05-26 01:00:00 18.2 8 Noroeste 21 Norte 0 -- -- 65
2019-05-26 00:00:00 19 10 Noroeste 28 Noroeste 0 -- -- 64
2019-05-25 23:00:00 19.9 16 Noroeste 35 Oeste 0 -- -- 60
2019-05-25 22:00:00 19.5 6 Oeste 27 Sudoeste 0.1 -- -- 72
2019-05-25 21:00:00 19.3 22 Sudoeste 29 Sudoeste 0 -- -- 79
2019-05-25 20:00:00 19.5 14 Sudoeste 19 Sudoeste 0 -- -- 78
2019-05-25 19:00:00 20.4 14 Sur 20 Sur 0.8 -- -- 75
2019-05-25 18:00:00 22.3 6 Sudeste 13 Sudeste 0 -- -- 60
2019-05-25 17:00:00 24.5 3 Nordeste 20 Norte 0 -- -- 45
2019-05-25 16:00:00 23.4 11 Norte 26 Noroeste 0 -- -- 50
2019-05-25 15:00:00 22.6 15 Norte 26 Norte 0 -- -- 51
2019-05-25 14:00:00 21.5 13 Norte 32 Norte 0 -- -- 54
2019-05-25 13:00:00 20.6 18 Norte 36 Noroeste 0 -- -- 58
2019-05-25 12:00:00 19.7 19 Noroeste 32 Noroeste 0 -- -- 64
2019-05-25 11:00:00 17.8 19 Noroeste 34 Noroeste 0 -- -- 70
2019-05-25 10:00:00 16.4 14 Noroeste 28 Noroeste 0 -- -- 76
2019-05-25 09:00:00 15.8 10 Norte 21 Noroeste 0.2 -- -- 78
2019-05-25 08:00:00 15.2 12 Norte 23 Norte 0 -- -- 81
2019-05-25 07:00:00 14.9 12 Norte 23 Norte 0 -- -- 83
2019-05-25 06:00:00 14.8 17 Norte 27 Norte 1.2 -- -- 87
2019-05-25 05:00:00 14.5 12 Norte 22 Norte 1.5 -- -- 94
2019-05-25 04:00:00 14.9 12 Norte 19 Norte 1.6 -- -- 94
2019-05-25 03:00:00 15.5 4 Norte 13 Norte 0.5 -- -- 95
2019-05-25 02:00:00 15.2 6 Nordeste 14 Nordeste 0 -- -- 95
2019-05-25 01:00:00 15.5 4 Nordeste 24 Norte 0.6 -- -- 96
2019-05-25 00:00:00 16 3 Noroeste 11 Sudoeste 1.4 -- -- 95
2019-05-24 23:00:00 15.7 8 Sudoeste 14 Sur 0.8 -- -- 96
2019-05-24 22:00:00 15.6 12 Sudoeste 19 Sur 1.4 -- -- 96
2019-05-24 21:00:00 16 14 Sudoeste 21 Sudoeste 0 -- -- 92
2019-05-24 20:00:00 16.7 14 Sudoeste 22 Sur 0 -- -- 88
2019-05-24 19:00:00 17 16 Sur 21 Sur 0 -- -- 86
2019-05-24 18:00:00 17.3 13 Sur 17 Sudeste 0 -- -- 85
2019-05-24 17:00:00 18.1 4 Sudeste 8 Sudeste 0 -- -- 81
2019-05-24 16:00:00 16.7 0 Calma 11 Oeste 0.8 -- -- 82
2019-05-24 15:00:00 17 6 Oeste 12 Oeste 0.2 -- -- 86
2019-05-24 14:00:00 16.7 5 Oeste 10 Oeste 0.5 -- -- 88
2019-05-24 13:00:00 16.7 4 Oeste 12 Noroeste 0.8 -- -- 92
2019-05-24 12:00:00 16.4 8 Noroeste 23 Norte 0.6 -- -- 92
2019-05-24 11:00:00 16.8 10 Noroeste 19 Norte 0.6 -- -- 89
2019-05-24 10:00:00 16.9 8 Norte 19 Norte 0 -- -- 89
2019-05-24 09:00:00 16.9 4 Nordeste 13 Este 0 -- -- 94
2019-05-24 08:00:00 17.4 0 Calma 9 Nordeste 0 -- -- 95
2019-05-24 07:00:00 17.3 0 Calma 18 Nordeste 0.2 -- -- 96
2019-05-24 06:00:00 17.6 9 Nordeste 23 Nordeste 2 -- -- 95
2019-05-24 05:00:00 18 5 Noroeste 12 Noroeste 0.2 -- -- 95
2019-05-24 04:00:00 17.7 3 Nordeste 15 Norte 0 -- -- 95
2019-05-24 03:00:00 18.2 4 Norte 10 Norte 0 -- -- 95
2019-05-24 02:00:00 18.3 0 Calma 11 Sudeste 0 -- -- 95
2019-05-24 01:00:00 18.4 0 Calma 8 Norte 0 -- -- 94
2019-05-24 00:00:00 18.6 0 Calma 9 Sudeste 0 -- -- 93
2019-05-23 23:00:00 18.7 0 Calma 12 Sudeste 0 -- -- 93
2019-05-23 22:00:00 18.8 5 Sudeste 10 Sudeste 0 -- -- 92
2019-05-23 21:00:00 19 7 Este 14 Sudeste 0 -- -- 92
2019-05-23 20:00:00 19.6 10 Sudeste 18 Sur 0 -- -- 87
2019-05-23 19:00:00 19.6 15 Sur 23 Sur 0 -- -- 88
2019-05-23 18:00:00 19.9 18 Sur 51 Sur 0 -- -- 88
2019-05-23 17:00:00 20.3 19 Sur 24 Sur 0 -- -- 84
2019-05-23 16:00:00 21.1 16 Sur 22 Sur 0 -- -- 83
2019-05-23 15:00:00 20.7 11 Sur 17 Sudeste 0 -- -- 79
2019-05-23 14:00:00 20.7 3 Este 12 Sudeste 0 -- -- 82
2019-05-23 13:00:00 20.2 3 Este 14 Sudeste 0 -- -- 80
2019-05-23 12:00:00 19.8 3 Este 9 Nordeste 0 -- -- 79
2019-05-23 11:00:00 18.6 4 Nordeste 17 Nordeste 0 -- -- 86
2019-05-23 10:00:00 17.7 8 Nordeste 15 Nordeste 0 -- -- 91
2019-05-23 09:00:00 16.6 6 Nordeste 15 Nordeste 0 -- -- 95
2019-05-23 08:00:00 16.9 2 Nordeste 12 Norte 0 -- -- 95
2019-05-23 07:00:00 16.6 0 Calma 4 Norte 0 -- -- 96
2019-05-23 06:00:00 16.4 0 Calma 0 Calma 0 -- -- 94
2019-05-23 05:00:00 16.5 0 Calma 9 Sudeste 0 -- -- 94
2019-05-23 04:00:00 17 0 Calma 7 Sudeste 0 -- -- 93
2019-05-23 03:00:00 16.7 0 Calma 7 Sur 0 -- -- 93
2019-05-23 02:00:00 17.1 7 Sur 15 Sur 0 -- -- 93
2019-05-23 01:00:00 17.3 12 Sur 18 Sur 0 -- -- 94
2019-05-23 00:00:00 17.7 14 Sur 21 Sur 0 -- -- 93
2019-05-22 23:00:00 17.9 15 Sur 26 Sudoeste 0 -- -- 93
2019-05-22 22:00:00 18.2 20 Sudoeste 30 Sudoeste 0 -- -- 94
2019-05-22 21:00:00 18.6 22 Sur 28 Sur 0 -- -- 92
2019-05-22 20:00:00 19.3 21 Sur 26 Sudoeste 0 -- -- 89
2019-05-22 19:00:00 19.9 21 Sur 27 Sur 0 -- -- 89
2019-05-22 18:00:00 20.1 20 Sur 27 Sur 0 -- -- 82
2019-05-22 17:00:00 20.9 20 Sur 26 Sur 0 -- -- 78
2019-05-22 16:00:00 21.3 19 Sur 25 Sur 0 -- -- 62
2019-05-22 15:00:00 20.7 17 Sur 23 Sur 0 -- -- 70
2019-05-22 14:00:00 20.8 15 Sur 19 Sur 0 -- -- 69
2019-05-22 13:00:00 20.5 13 Sur 18 Sudeste 0 -- -- 72
2019-05-22 12:00:00 20.3 6 Sur -- -- -- -- -- 70
2019-05-22 11:00:00 19.1 0 Calma 7 Sudeste 0 -- -- 67
2019-05-22 10:00:00 17.7 3 Sur 6 Sur 0 -- -- 83
2019-05-22 09:00:00 16.7 0 Calma 8 Norte 0 -- -- 95
2019-05-22 08:00:00 16.1 4 Norte 8 Noroeste 0 -- -- 95
2019-05-22 07:00:00 16.1 0 Calma 3 Noroeste 0 -- -- 96
2019-05-22 06:00:00 16.3 0 Calma 8 Sudeste 0 -- -- 95
2019-05-22 05:00:00 16.4 5 Sudeste 9 Este 0 -- -- 96
2019-05-22 04:00:00 16.5 0 Calma 10 Sudeste 0 -- -- 96
2019-05-22 03:00:00 16.7 0 Calma 6 Nordeste 0 -- -- 96
2019-05-22 02:00:00 17.1 0 Calma 8 Nordeste 0 -- -- 95
2019-05-22 01:00:00 16.9 7 Sudeste 9 Sudeste 0 -- -- 94
2019-05-22 00:00:00 17.3 5 Sur 18 Sudoeste 0 -- -- 93